Estació municipal de St. Julià de Vilatorta (Osona, E.N.Guilleries-Savassona)

Consulta les dades en temps real de l'estació municipal de St. Julià de Vilatorta





Hora UTC 03:20
Temperatura 16.4 ºC
Subsòl 10 cm 13.1 ºC
Humitat 89.5 %
Pressió 1022.4 hPa
Pluja 0.0 mm
Velocitat vent 2.6 km/h
Direcció vent E
Radiació solar 0.4 W/m²
Fuel 9.2 %

Webcam

Dades diàries 2026-09-03



Hora UTC (hivern +1h; estiu +2h)
Temperatura (ºC) Humitat (%) Pressió (hPa) Velocitat vent (km/h) Precipitació (mm) Fuel (%) Radiació solar (W/m²)
Hora UTC Aire Subsòl 10 cm Humitat Pressió Vel. Dir. Vel. Max Dir. Intent. màx 5 min. Fuel Rad. Sol.
00:05 17.7 13.9 83.5 1022.6 1.7 SSE 1.7 SSE 0.0 7.8 0.3
00:10 17.5 13.9 84.1 1022.6 2.4 SSE 3.6 SSE 0.0 7.8 0.3
00:15 17.4 14.1 84.9 1022.6 2.5 SE 4.4 SSE 0.0 7.7 0.6
00:20 17.4 14.0 85.3 1022.6 2.3 SE 4.0 SE 0.0 7.7 0.3
00:25 17.3 14.0 85.2 1022.6 2.4 SE 4.1 SE 0.0 7.8 0.6
00:30 17.4 13.9 85.8 1022.7 2.6 SE 4.2 SE 0.0 7.9 0.7
00:35 17.4 13.9 85.1 1022.6 3.2 SE 6.0 SSE 0.0 7.9 0.6
00:40 17.6 13.9 85.3 1022.6 2.2 ESE 4.1 ESE 0.0 7.9 0.7
00:45 17.6 13.9 85.0 1022.6 2.6 ESE 4.9 E 0.0 8.0 0.4
00:50 17.6 14.0 84.7 1022.6 4.3 E 6.2 E 0.0 7.9 0.4
00:55 17.5 14.1 84.8 1022.6 2.8 ESE 4.6 ESE 0.0 8.0 0.5
01:00 17.7 14.1 83.8 1022.6 3.2 ESE 5.5 ESE 0.0 8.0 0.7
01:05 17.8 14.1 83.8 1022.5 2.7 ESE 4.0 E 0.0 8.0 0.7
01:10 17.7 14.1 83.6 1022.6 2.8 SE 4.4 SSE 0.0 8.1 0.3
01:15 17.6 14.4 84.3 1022.6 2.6 ESE 4.4 SSE 0.0 8.1 0.3
01:20 17.5 14.5 84.9 1022.5 3.5 E 5.8 ESE 0.0 8.2 0.2
01:25 17.5 14.3 84.8 1022.5 2.8 SE 5.5 ESE 0.0 8.1 0.3
01:30 17.6 14.1 84.2 1022.5 1.9 SE 2.7 SE 0.0 8.2 0.1
01:35 17.5 14.0 84.6 1022.5 2.8 ESE 5.7 ESE 0.0 8.3 0.3
01:40 17.5 13.9 85.0 1022.5 3.4 ESE 5.1 SE 0.0 8.3 0.4
01:45 17.5 13.8 84.8 1022.5 3.4 ESE 5.5 ESE 0.0 8.4 0.3
01:50 17.5 13.8 85.1 1022.5 3.1 ESE 5.1 SE 0.0 8.4 0.2
01:55 17.4 13.8 85.2 1022.5 3.7 ESE 6.0 E 0.0 8.4 0.5
02:00 17.4 13.8 85.4 1022.5 2.7 ESE 5.5 ESE 0.0 8.4 0.4
02:05 17.3 13.8 85.7 1022.5 2.2 SSE 3.6 SSE 0.0 8.5 0.3
02:10 17.0 14.1 85.5 1022.5 3.5 SSE 5.8 SSE 0.0 8.5 0.0
02:15 16.8 14.2 86.5 1022.5 1.5 ESE 3.2 ESE 0.0 8.6 0.2
02:20 16.7 14.0 87.6 1022.5 1.4 SE 2.4 SE 0.0 8.5 0.2
02:25 16.7 13.8 88.0 1022.5 2.0 ESE 4.7 ESE 0.0 8.6 0.3
02:30 16.8 13.6 87.9 1022.5 2.8 ESE 5.0 ESE 0.0 8.7 0.4
02:35 16.8 13.5 87.9 1022.5 2.6 ESE 4.3 ESE 0.0 8.7 0.4
02:40 16.8 13.4 87.2 1022.5 1.2 SE 3.1 SSE 0.0 8.8 0.4
02:45 16.7 13.4 88.0 1022.5 1.4 E 2.5 ESE 0.0 8.8 0.2
02:50 16.6 13.3 88.3 1022.4 1.1 SE 2.8 ESE 0.0 8.9 0.3
02:55 16.5 13.2 88.6 1022.4 0.9 SE 2.3 ESE 0.0 8.9 0.4
03:00 16.5 13.1 88.9 1022.4 1.9 E 3.1 ESE 0.0 9.0 0.6
03:05 16.5 13.1 89.1 1022.4 2.7 E 4.2 ESE 0.0 8.2 0.6
03:10 16.5 13.1 88.8 1022.4 2.3 E 3.8 ESE 0.0 9.1 0.6
03:15 16.4 13.1 88.8 1022.4 1.3 ESE 3.0 ESE 0.0 9.1 0.2
03:20 16.4 13.1 89.5 1022.4 2.6 E 3.9 ESE 0.0 9.2 0.4
Màxima 17.8 14.5 89.5 1022.7 4.3 E 6.2 E 0.0 9.2 0.7
Mínima 16.4 13.1 83.5 1022.4 7.7
Total 0.0